Time;durP1;ratioP1;P1;durP2;ratioP2;P2;SDS_P1;SDS_P2;PMS_P1;PMS_P2;Temp;Humidity;BMP_temperature;BMP_pressure;BME280_temperature;BME280_humidity;BME280_pressure;Samples;Min_cycle;Max_cycle;Signal;HPM_P1;HPM_P2
2022/06/08 00:01:09;;;;;;;17.55;10.07;;;;;;;;;;5029619;28;20056;-71
2022/06/08 00:03:45;;;;;;;20.05;10.30;;;;;;;;;;5012140;28;20055;-71
2022/06/08 00:06:12;;;;;;;24.63;11.88;;;;;;;;;;5012047;28;20045;-71
2022/06/08 00:08:38;;;;;;;26.20;12.55;;;;;;;;;;5029150;28;20103;-71
2022/06/08 00:11:04;;;;;;;24.17;12.82;;;;;;;;;;5012588;28;20049;-71
2022/06/08 00:13:30;;;;;;;25.70;13.25;;;;;;;;;;5029457;28;20045;-71
2022/06/08 00:15:57;;;;;;;24.75;12.52;;;;;;;;;;5029591;28;20133;-71
2022/06/08 00:18:23;;;;;;;27.75;13.30;;;;;;;;;;5029602;28;20037;-71
2022/06/08 00:20:49;;;;;;;26.48;12.80;;;;;;;;;;5029651;28;20045;-71
2022/06/08 00:23:15;;;;;;;23.75;12.95;;;;;;;;;;5011852;28;20124;-71
2022/06/08 00:25:41;;;;;;;32.25;14.90;;;;;;;;;;5029552;28;20038;-71
2022/06/08 00:28:07;;;;;;;30.58;14.93;;;;;;;;;;5029299;28;20108;-71
2022/06/08 00:30:34;;;;;;;30.83;15.80;;;;;;;;;;5027045;28;20037;-71
2022/06/08 00:33:00;;;;;;;32.97;16.60;;;;;;;;;;5011616;28;20052;-71
2022/06/08 00:35:26;;;;;;;33.95;16.55;;;;;;;;;;5029606;28;20116;-71
2022/06/08 00:37:52;;;;;;;34.95;17.48;;;;;;;;;;5011722;28;20037;-71
2022/06/08 00:40:21;;;;;;;33.08;17.05;;;;;;;;;;5029175;28;20180;-71
2022/06/08 00:42:47;;;;;;;34.30;15.90;;;;;;;;;;5014007;28;20041;-71
2022/06/08 00:45:21;;;;;;;30.08;16.70;;;;;;;;;;5015397;28;20392;-71
2022/06/08 00:47:50;;;;;;;33.67;16.88;;;;;;;;;;5015530;28;20049;-71
2022/06/08 00:50:19;;;;;;;26.13;14.90;;;;;;;;;;5014832;28;20045;-70
2022/06/08 00:52:46;;;;;;;33.83;16.95;;;;;;;;;;5033170;28;20140;-70
2022/06/08 00:55:14;;;;;;;32.15;17.52;;;;;;;;;;4998949;28;20042;-70
2022/06/08 00:57:43;;;;;;;32.58;16.83;;;;;;;;;;5015231;28;20188;-70
2022/06/08 01:00:11;;;;;;;34.58;17.05;;;;;;;;;;5014521;28;20474;-70
2022/06/08 01:02:37;;;;;;;32.47;17.00;;;;;;;;;;5032256;28;20042;-70
2022/06/08 01:05:21;;;;;;;36.60;17.48;;;;;;;;;;5014926;28;20041;-70
2022/06/08 01:07:48;;;;;;;38.40;18.60;;;;;;;;;;5015167;28;20073;-70
2022/06/08 01:10:15;;;;;;;35.20;17.83;;;;;;;;;;4998173;28;20064;-70
2022/06/08 01:12:41;;;;;;;35.95;18.83;;;;;;;;;;5012522;28;20190;-71
2022/06/08 01:15:08;;;;;;;38.28;18.67;;;;;;;;;;5014385;28;20041;-71
2022/06/08 01:17:34;;;;;;;36.67;18.40;;;;;;;;;;5032281;28;20038;-71
2022/06/08 01:20:00;;;;;;;39.42;18.63;;;;;;;;;;5032422;28;20034;-70
2022/06/08 01:22:26;;;;;;;36.92;18.65;;;;;;;;;;5014667;28;20033;-70
2022/06/08 01:24:53;;;;;;;31.80;17.70;;;;;;;;;;5014686;28;20350;-70
2022/06/08 01:27:21;;;;;;;36.35;18.70;;;;;;;;;;5032545;28;20064;-70
2022/06/08 01:30:12;;;;;;;31.08;17.67;;;;;;;;;;4998186;28;20033;-70
2022/06/08 01:32:47;;;;;;;35.30;17.30;;;;;;;;;;5013679;28;20045;-70
2022/06/08 01:35:32;;;;;;;34.13;17.77;;;;;;;;;;5031920;28;20060;-70
2022/06/08 01:38:07;;;;;;;32.50;17.83;;;;;;;;;;5032277;28;20280;-71
2022/06/08 01:40:52;;;;;;;32.85;17.65;;;;;;;;;;5014863;28;20041;-70
2022/06/08 01:43:32;;;;;;;31.15;17.15;;;;;;;;;;5028521;28;20069;-71
2022/06/08 01:46:09;;;;;;;32.65;17.67;;;;;;;;;;4997888;28;20665;-71
2022/06/08 01:48:45;;;;;;;34.65;18.88;;;;;;;;;;5013766;28;20097;-71
2022/06/08 01:51:23;;;;;;;34.88;18.90;;;;;;;;;;5032044;28;20425;-71
2022/06/08 01:54:08;;;;;;;36.88;19.05;;;;;;;;;;5012502;28;20041;-71
2022/06/08 01:56:45;;;;;;;35.97;18.73;;;;;;;;;;5031816;28;20037;-71
2022/06/08 01:59:34;;;;;;;31.38;16.75;;;;;;;;;;5016037;28;20397;-70
2022/06/08 02:02:06;;;;;;;34.35;18.15;;;;;;;;;;5029019;28;20048;-70
2022/06/08 02:04:50;;;;;;;36.38;19.05;;;;;;;;;;5011466;28;20378;-70
2022/06/08 02:07:26;;;;;;;34.67;18.88;;;;;;;;;;5010818;28;20037;-71
2022/06/08 02:09:52;;;;;;;;;;;;;;;;;;5029398;28;20079;-71
2022/06/08 02:12:19;;;;;;;31.45;17.38;;;;;;;;;;5028316;28;19996;-71
2022/06/08 02:14:47;;;;;;;34.05;18.02;;;;;;;;;;5029553;28;20073;-71
2022/06/08 02:17:22;;;;;;;30.70;17.73;;;;;;;;;;5010075;28;20095;-70
2022/06/08 02:19:51;;;;;;;37.15;18.52;;;;;;;;;;5029619;28;20393;-71
2022/06/08 02:22:30;;;;;;;32.40;17.70;;;;;;;;;;5028900;28;20359;-71
2022/06/08 02:25:16;;;;;;;32.90;17.77;;;;;;;;;;5012478;28;20069;-71
2022/06/08 02:27:49;;;;;;;35.45;18.27;;;;;;;;;;5011095;28;20080;-71
2022/06/08 02:30:18;;;;;;;34.53;17.92;;;;;;;;;;5030271;28;20047;-71
2022/06/08 02:35:38;;;;;;;33.83;17.55;;;;;;;;;;5030015;28;20041;-70
2022/06/08 02:38:10;;;;;;;35.85;17.60;;;;;;;;;;5031052;28;20080;-71
2022/06/08 02:40:38;;;;;;;35.50;18.55;;;;;;;;;;5030811;28;20045;-71
2022/06/08 02:43:08;;;;;;;28.77;17.17;;;;;;;;;;5012811;28;20115;-71
2022/06/08 02:45:39;;;;;;;31.95;17.52;;;;;;;;;;5029717;28;20041;-71
2022/06/08 02:48:09;;;;;;;32.15;18.25;;;;;;;;;;5012967;28;20041;-70
2022/06/08 02:50:35;;;;;;;31.88;17.02;;;;;;;;;;5012388;28;20064;-71
2022/06/08 02:53:24;;;;;;;36.85;19.02;;;;;;;;;;4996824;28;20045;-71
2022/06/08 02:55:53;;;;;;;34.05;18.35;;;;;;;;;;4992344;28;20459;-71
2022/06/08 02:58:22;;;;;;;32.42;18.48;;;;;;;;;;5015101;28;20477;-71
2022/06/08 03:00:51;;;;;;;37.47;18.17;;;;;;;;;;5028542;28;20068;-71
2022/06/08 03:03:25;;;;;;;33.95;18.58;;;;;;;;;;4996585;28;20489;-71
2022/06/08 03:06:02;;;;;;;36.65;18.38;;;;;;;;;;5029817;28;20042;-71
2022/06/08 03:08:34;;;;;;;32.72;18.55;;;;;;;;;;5029812;28;20106;-71
2022/06/08 03:11:02;;;;;;;35.00;18.80;;;;;;;;;;5012742;28;20045;-71
2022/06/08 03:13:30;;;;;;;31.25;18.55;;;;;;;;;;5029852;28;20099;-71
2022/06/08 03:15:58;;;;;;;33.10;19.17;;;;;;;;;;5030326;28;20167;-71
2022/06/08 03:18:24;;;;;;;36.83;18.25;;;;;;;;;;5012052;28;20072;-71
2022/06/08 03:20:50;;;;;;;38.97;20.42;;;;;;;;;;5029841;28;20380;-72
2022/06/08 03:23:17;;;;;;;35.45;19.42;;;;;;;;;;4996302;28;20052;-71
2022/06/08 03:25:43;;;;;;;35.17;19.20;;;;;;;;;;5029915;28;20381;-71
2022/06/08 03:28:12;;;;;;;35.50;20.08;;;;;;;;;;5012018;28;20400;-71
2022/06/08 03:30:39;;;;;;;39.08;20.45;;;;;;;;;;5029841;28;20113;-71
2022/06/08 03:33:05;;;;;;;33.08;19.80;;;;;;;;;;5030138;28;20428;-72
2022/06/08 03:35:31;;;;;;;31.08;18.50;;;;;;;;;;5029585;28;20084;-71
2022/06/08 03:37:59;;;;;;;36.03;18.80;;;;;;;;;;5029872;28;20048;-71
2022/06/08 03:40:27;;;;;;;35.13;18.35;;;;;;;;;;5027687;28;20045;-71
2022/06/08 03:42:53;;;;;;;35.90;19.00;;;;;;;;;;5012529;28;20493;-71
2022/06/08 03:45:19;;;;;;;34.22;18.95;;;;;;;;;;5011809;28;20037;-71
2022/06/08 03:47:46;;;;;;;34.17;18.98;;;;;;;;;;5012329;28;20069;-72
2022/06/08 03:50:14;;;;;;;37.95;19.08;;;;;;;;;;5021750;28;20054;-71
2022/06/08 03:52:43;;;;;;;31.20;18.42;;;;;;;;;;4992808;28;20060;-71
2022/06/08 03:55:10;;;;;;;33.08;18.67;;;;;;;;;;4988669;28;20045;-71
2022/06/08 03:57:37;;;;;;;33.53;18.52;;;;;;;;;;4992619;28;20401;-71
2022/06/08 04:00:04;;;;;;;35.08;19.10;;;;;;;;;;5008612;28;20034;-72
2022/06/08 04:02:30;;;;;;;34.25;18.83;;;;;;;;;;4975342;28;20084;-71
2022/06/08 04:04:56;;;;;;;38.60;19.05;;;;;;;;;;4991817;28;20096;-71
2022/06/08 04:07:23;;;;;;;38.13;18.50;;;;;;;;;;4996029;28;20034;-72
2022/06/08 04:09:49;;;;;;;35.38;19.30;;;;;;;;;;5009686;28;20112;-71
2022/06/08 04:12:16;;;;;;;34.67;18.77;;;;;;;;;;5010130;28;20141;-71
2022/06/08 04:14:42;;;;;;;34.20;18.55;;;;;;;;;;5015008;28;20434;-71
2022/06/08 04:17:08;;;;;;;32.53;18.63;;;;;;;;;;5010654;28;20493;-71
2022/06/08 04:19:34;;;;;;;36.92;19.58;;;;;;;;;;4994279;28;20064;-72
2022/06/08 04:22:00;;;;;;;33.55;18.42;;;;;;;;;;4979621;28;20087;-72
2022/06/08 04:24:27;;;;;;;33.08;18.73;;;;;;;;;;4996027;28;20069;-72
2022/06/08 04:26:53;;;;;;;33.00;18.70;;;;;;;;;;5014817;28;20038;-72
2022/06/08 04:29:20;;;;;;;39.08;20.02;;;;;;;;;;5019299;28;20034;-72
2022/06/08 04:31:46;;;;;;;34.08;19.70;;;;;;;;;;5012049;28;20057;-72
2022/06/08 04:34:13;;;;;;;38.10;19.40;;;;;;;;;;5015948;28;20108;-72
2022/06/08 04:36:39;;;;;;;35.78;19.25;;;;;;;;;;4998948;28;20042;-72
2022/06/08 04:39:06;;;;;;;32.53;19.42;;;;;;;;;;4979767;28;20045;-72
2022/06/08 04:41:33;;;;;;;31.08;19.23;;;;;;;;;;5011470;28;20132;-72
2022/06/08 04:44:00;;;;;;;36.08;19.50;;;;;;;;;;4994092;28;20042;-71
2022/06/08 04:46:26;;;;;;;30.98;19.52;;;;;;;;;;4995201;28;20077;-71
2022/06/08 04:48:52;;;;;;;34.17;19.35;;;;;;;;;;4994982;28;20065;-72
2022/06/08 04:51:18;;;;;;;32.58;18.42;;;;;;;;;;5013132;28;20060;-71
2022/06/08 04:53:45;;;;;;;32.92;18.27;;;;;;;;;;5014227;28;20049;-72
2022/06/08 04:56:11;;;;;;;33.90;19.35;;;;;;;;;;5031715;28;20126;-72
2022/06/08 04:58:38;;;;;;;30.85;18.23;;;;;;;;;;5015871;28;20053;-72
2022/06/08 05:01:04;;;;;;;35.38;18.08;;;;;;;;;;5013729;28;20083;-71
2022/06/08 05:03:30;;;;;;;33.42;18.92;;;;;;;;;;5014070;28;20034;-72
2022/06/08 05:05:57;;;;;;;31.05;17.25;;;;;;;;;;5014419;28;20033;-71
2022/06/08 05:08:23;;;;;;;31.40;17.33;;;;;;;;;;4998222;28;20045;-71
2022/06/08 05:10:50;;;;;;;27.63;16.55;;;;;;;;;;5014565;28;20769;-71
2022/06/08 05:13:17;;;;;;;28.35;16.85;;;;;;;;;;5031830;28;20061;-72
2022/06/08 05:15:43;;;;;;;28.25;17.23;;;;;;;;;;5031903;28;20052;-71
2022/06/08 05:18:10;;;;;;;25.08;16.60;;;;;;;;;;5032150;28;20041;-71
2022/06/08 05:20:37;;;;;;;27.80;15.80;;;;;;;;;;5014333;28;20049;-72
2022/06/08 05:23:04;;;;;;;28.50;16.38;;;;;;;;;;5031634;28;20034;-72
2022/06/08 05:25:33;;;;;;;26.33;16.20;;;;;;;;;;5032045;28;20040;-71
2022/06/08 05:27:59;;;;;;;24.60;15.10;;;;;;;;;;5032290;28;20033;-71
2022/06/08 05:30:26;;;;;;;27.67;15.60;;;;;;;;;;5031891;28;20045;-71
2022/06/08 05:32:52;;;;;;;25.55;14.90;;;;;;;;;;5013764;28;20128;-71
2022/06/08 05:35:19;;;;;;;26.73;15.85;;;;;;;;;;5032149;28;20038;-71
2022/06/08 05:37:46;;;;;;;23.52;14.95;;;;;;;;;;5031809;28;20193;-71
2022/06/08 05:40:12;;;;;;;26.92;14.90;;;;;;;;;;5013839;28;20048;-71
2022/06/08 05:42:39;;;;;;;24.58;14.38;;;;;;;;;;5013677;28;20054;-71
2022/06/08 05:45:06;;;;;;;24.33;14.88;;;;;;;;;;5031942;28;20599;-72
2022/06/08 05:47:32;;;;;;;25.15;14.65;;;;;;;;;;5014169;28;20052;-72
2022/06/08 05:49:58;;;;;;;27.95;15.18;;;;;;;;;;5031133;28;20438;-76
2022/06/08 05:52:25;;;;;;;25.52;15.50;;;;;;;;;;5014040;28;20124;-71
2022/06/08 05:54:52;;;;;;;24.30;15.10;;;;;;;;;;5013192;28;20086;-71
2022/06/08 05:57:18;;;;;;;23.17;15.02;;;;;;;;;;4997328;28;20030;-71
2022/06/08 05:59:44;;;;;;;24.88;15.63;;;;;;;;;;5031142;28;20524;-71
2022/06/08 06:02:12;;;;;;;22.63;13.63;;;;;;;;;;5031411;28;20132;-71
2022/06/08 06:04:38;;;;;;;23.48;14.43;;;;;;;;;;5031027;28;20045;-72
2022/06/08 06:07:04;;;;;;;22.23;13.75;;;;;;;;;;5012788;28;20045;-71
2022/06/08 06:09:32;;;;;;;20.13;13.18;;;;;;;;;;5013410;28;20041;-71
2022/06/08 06:11:58;;;;;;;21.17;14.02;;;;;;;;;;5012546;28;20055;-72
2022/06/08 06:14:24;;;;;;;20.65;13.18;;;;;;;;;;5031225;28;20049;-72
2022/06/08 06:16:50;;;;;;;22.35;12.85;;;;;;;;;;5030609;28;20124;-72
2022/06/08 06:19:17;;;;;;;18.77;12.45;;;;;;;;;;5031431;28;20083;-72
2022/06/08 06:21:43;;;;;;;15.52;11.30;;;;;;;;;;5030294;28;20041;-73
2022/06/08 06:24:09;;;;;;;17.05;11.20;;;;;;;;;;5030227;28;20030;-71
2022/06/08 06:26:35;;;;;;;16.95;10.75;;;;;;;;;;5029486;28;20042;-71
2022/06/08 06:29:01;;;;;;;16.90;10.45;;;;;;;;;;5028611;28;20052;-72
2022/06/08 06:31:40;;;;;;;13.45;9.30;;;;;;;;;;5012748;28;20041;-72
2022/06/08 06:34:06;;;;;;;13.60;9.30;;;;;;;;;;5027434;28;20060;-72
2022/06/08 06:36:32;;;;;;;13.25;9.13;;;;;;;;;;5013033;28;20519;-72
2022/06/08 06:38:58;;;;;;;12.38;9.10;;;;;;;;;;5013115;28;20439;-72
2022/06/08 06:41:26;;;;;;;10.82;7.55;;;;;;;;;;5012572;28;21154;-72
2022/06/08 06:43:53;;;;;;;10.35;7.78;;;;;;;;;;5030106;28;20041;-73
2022/06/08 06:46:19;;;;;;;10.60;7.85;;;;;;;;;;4996368;28;20095;-72
2022/06/08 06:48:45;;;;;;;10.88;7.70;;;;;;;;;;5029889;28;20469;-73
2022/06/08 06:51:12;;;;;;;10.55;7.18;;;;;;;;;;5012328;28;20045;-72
2022/06/08 06:53:38;;;;;;;10.05;7.28;;;;;;;;;;5028487;28;20061;-72
2022/06/08 06:56:04;;;;;;;12.15;7.45;;;;;;;;;;5010299;28;20079;-72
2022/06/08 06:58:30;;;;;;;10.88;7.35;;;;;;;;;;5031042;28;20048;-72
2022/06/08 07:00:56;;;;;;;9.02;6.85;;;;;;;;;;5014180;28;20044;-72
2022/06/08 07:03:22;;;;;;;10.73;7.55;;;;;;;;;;5012897;28;20048;-72
2022/06/08 07:05:48;;;;;;;9.52;6.97;;;;;;;;;;5028375;28;20377;-72
2022/06/08 07:08:15;;;;;;;9.15;6.50;;;;;;;;;;4994017;28;20042;-72
2022/06/08 07:10:43;;;;;;;8.02;6.00;;;;;;;;;;4996064;28;20073;-72
2022/06/08 07:13:10;;;;;;;8.80;6.43;;;;;;;;;;5029105;28;20038;-72
2022/06/08 07:15:36;;;;;;;7.60;5.88;;;;;;;;;;5030294;28;20045;-72
2022/06/08 07:18:02;;;;;;;8.05;5.82;;;;;;;;;;5011579;28;20037;-72
2022/06/08 07:20:28;;;;;;;9.38;5.78;;;;;;;;;;5010464;28;20041;-72
2022/06/08 07:22:54;;;;;;;9.07;5.53;;;;;;;;;;5029208;28;20038;-72
2022/06/08 07:25:20;;;;;;;7.68;5.13;;;;;;;;;;5027853;28;20037;-72
2022/06/08 07:27:47;;;;;;;8.80;4.75;;;;;;;;;;5010153;28;20416;-71
2022/06/08 07:30:14;;;;;;;8.23;4.68;;;;;;;;;;5028417;28;20037;-72
2022/06/08 07:32:40;;;;;;;7.75;4.95;;;;;;;;;;5027995;28;20563;-74
2022/06/08 07:35:07;;;;;;;7.03;4.65;;;;;;;;;;5015917;28;20119;-72
2022/06/08 07:37:33;;;;;;;7.68;4.55;;;;;;;;;;5012669;28;20193;-72
2022/06/08 07:39:59;;;;;;;7.40;4.35;;;;;;;;;;4997997;28;20033;-72
2022/06/08 07:42:25;;;;;;;6.70;4.30;;;;;;;;;;5030125;28;20095;-72
2022/06/08 07:44:51;;;;;;;6.43;4.00;;;;;;;;;;5011647;28;20106;-72
2022/06/08 07:47:17;;;;;;;7.53;4.18;;;;;;;;;;5011941;28;20061;-72
2022/06/08 07:49:49;;;;;;;7.25;4.95;;;;;;;;;;5010706;28;20108;-72
2022/06/08 07:52:17;;;;;;;8.07;4.70;;;;;;;;;;5031240;28;20046;-72
2022/06/08 07:54:44;;;;;;;7.80;4.80;;;;;;;;;;5033374;28;20500;-72
2022/06/08 07:57:15;;;;;;;9.60;4.60;;;;;;;;;;5033391;28;20090;-72
2022/06/08 07:59:41;;;;;;;7.07;4.82;;;;;;;;;;5015635;28;20052;-72
2022/06/08 08:02:08;;;;;;;8.88;4.95;;;;;;;;;;5033480;28;20034;-72
2022/06/08 08:04:34;;;;;;;6.32;4.63;;;;;;;;;;5033685;28;20385;-72
2022/06/08 08:07:00;;;;;;;6.75;4.75;;;;;;;;;;5033249;28;20397;-72
2022/06/08 08:09:26;;;;;;;7.13;4.32;;;;;;;;;;5033507;28;20043;-72
2022/06/08 08:11:54;;;;;;;5.57;4.20;;;;;;;;;;4998889;28;20069;-72
2022/06/08 08:14:21;;;;;;;6.75;3.95;;;;;;;;;;5015829;28;20041;-72
2022/06/08 08:16:48;;;;;;;6.65;3.95;;;;;;;;;;5032912;28;20053;-72
2022/06/08 08:19:17;;;;;;;6.00;3.50;;;;;;;;;;5033243;28;20461;-72
2022/06/08 08:21:43;;;;;;;7.07;3.30;;;;;;;;;;5032509;28;20111;-72
2022/06/08 08:24:09;;;;;;;7.10;4.35;;;;;;;;;;5015353;28;20362;-72
2022/06/08 08:26:36;;;;;;;5.53;3.10;;;;;;;;;;5033321;28;20033;-72
2022/06/08 08:29:03;;;;;;;10.50;3.65;;;;;;;;;;5015489;28;20045;-72
2022/06/08 08:31:29;;;;;;;6.63;4.05;;;;;;;;;;5014655;28;20037;-72
2022/06/08 08:33:55;;;;;;;7.70;4.22;;;;;;;;;;5032939;28;20119;-72
2022/06/08 08:36:21;;;;;;;8.40;4.90;;;;;;;;;;5015157;28;20037;-72
2022/06/08 08:38:47;;;;;;;7.38;4.75;;;;;;;;;;5015260;28;20076;-72
2022/06/08 08:44:05;;;;;;;6.65;4.50;;;;;;;;;;4994802;28;20041;-72
2022/06/08 08:46:39;;;;;;;9.82;4.35;;;;;;;;;;5015093;28;20040;-72
2022/06/08 08:49:19;;;;;;;7.65;4.65;;;;;;;;;;5014523;28;20034;-72
2022/06/08 08:51:48;;;;;;;6.28;4.30;;;;;;;;;;5031282;28;20057;-72
2022/06/08 08:54:35;;;;;;;8.00;4.18;;;;;;;;;;5032059;28;20038;-72
2022/06/08 08:57:16;;;;;;;6.85;4.32;;;;;;;;;;5013377;28;20048;-72
2022/06/08 08:59:44;;;;;;;7.47;4.32;;;;;;;;;;5015304;28;20107;-72
2022/06/08 09:02:15;;;;;;;6.88;4.38;;;;;;;;;;5014473;28;20038;-72
2022/06/08 09:04:47;;;;;;;6.53;4.50;;;;;;;;;;5014363;28;20041;-72
2022/06/08 09:07:18;;;;;;;7.65;4.00;;;;;;;;;;5032152;28;20063;-72
2022/06/08 09:09:44;;;;;;;6.30;3.22;;;;;;;;;;4997991;28;20051;-72
2022/06/08 09:12:19;;;;;;;5.28;3.35;;;;;;;;;;5013904;28;20044;-72
2022/06/08 09:14:57;;;;;;;5.03;3.30;;;;;;;;;;4997427;28;20508;-72
2022/06/08 09:17:34;;;;;;;5.85;3.38;;;;;;;;;;5029183;28;20047;-72
2022/06/08 09:20:01;;;;;;;4.35;3.10;;;;;;;;;;5013781;28;20076;-72
2022/06/08 09:22:28;;;;;;;4.90;3.15;;;;;;;;;;5014328;28;20424;-72
2022/06/08 09:24:56;;;;;;;5.75;2.85;;;;;;;;;;5014432;28;20056;-72
2022/06/08 09:27:36;;;;;;;4.18;2.60;;;;;;;;;;5014242;28;20103;-72
2022/06/08 09:30:05;;;;;;;5.65;2.90;;;;;;;;;;5014426;28;20083;-72
2022/06/08 09:32:40;;;;;;;4.28;2.88;;;;;;;;;;5032687;28;20033;-72
2022/06/08 09:35:21;;;;;;;5.72;3.65;;;;;;;;;;5031903;28;20064;-72
2022/06/08 09:37:49;;;;;;;5.13;3.20;;;;;;;;;;5013919;28;20443;-72
2022/06/08 09:43:20;;;;;;;5.68;3.78;;;;;;;;;;5031470;28;20135;-72
2022/06/08 09:45:55;;;;;;;8.00;4.40;;;;;;;;;;5014078;28;20044;-72
2022/06/08 09:51:51;;;;;;;6.07;4.55;;;;;;;;;;4977014;28;20057;-72
2022/06/08 09:54:32;;;;;;;8.05;4.70;;;;;;;;;;5031288;28;20037;-72
2022/06/08 09:56:59;;;;;;;6.15;4.20;;;;;;;;;;5032251;28;20095;-72
2022/06/08 09:59:44;;;;;;;5.95;4.60;;;;;;;;;;5014376;28;20041;-72
2022/06/08 10:02:10;;;;;;;6.82;4.50;;;;;;;;;;5012225;28;20473;-72
2022/06/08 10:04:54;;;;;;;7.30;4.82;;;;;;;;;;5031093;28;20048;-72
2022/06/08 10:07:23;;;;;;;9.00;5.93;;;;;;;;;;5031079;28;20477;-72
2022/06/08 10:09:49;;;;;;;10.55;5.50;;;;;;;;;;4996973;28;20045;-72
2022/06/08 10:12:33;;;;;;;12.57;6.07;;;;;;;;;;5013294;28;20052;-73
2022/06/08 10:15:07;;;;;;;12.25;6.00;;;;;;;;;;5012412;28;20440;-72
2022/06/08 10:17:40;;;;;;;9.10;5.70;;;;;;;;;;5013433;28;20041;-72
2022/06/08 10:20:12;;;;;;;7.72;5.13;;;;;;;;;;5012936;28;20136;-72
2022/06/08 10:22:44;;;;;;;10.68;6.00;;;;;;;;;;5013130;28;20061;-72
2022/06/08 10:25:13;;;;;;;13.18;5.85;;;;;;;;;;5030833;28;20117;-72
2022/06/08 10:27:42;;;;;;;8.80;5.72;;;;;;;;;;5030824;28;20095;-72
2022/06/08 10:30:27;;;;;;;8.30;5.72;;;;;;;;;;5013009;28;20033;-72
2022/06/08 10:32:58;;;;;;;8.88;5.88;;;;;;;;;;5012785;28;20041;-72
2022/06/08 10:35:30;;;;;;;9.88;5.10;;;;;;;;;;5012396;28;20041;-72
2022/06/08 10:37:56;;;;;;;8.75;5.65;;;;;;;;;;5031013;28;20046;-72
2022/06/08 10:40:25;;;;;;;9.15;5.53;;;;;;;;;;5013054;28;20045;-72
2022/06/08 10:42:52;;;;;;;7.85;5.22;;;;;;;;;;5012829;28;20041;-72
2022/06/08 10:45:21;;;;;;;9.88;6.05;;;;;;;;;;4995922;28;20033;-72
2022/06/08 10:47:58;;;;;;;10.07;5.35;;;;;;;;;;5013093;28;20037;-72
2022/06/08 10:50:30;;;;;;;9.00;5.40;;;;;;;;;;5012578;28;20049;-72
2022/06/08 10:54:53;;;;;;;9.48;5.50;;;;;;;;;;5030487;28;20056;-72
2022/06/08 10:55:43;;;;;;;8.60;5.43;;;;;;;;;;5030100;28;20450;-72
2022/06/08 10:58:11;;;;;;;8.38;5.25;;;;;;;;;;5030729;28;20048;-72
2022/06/08 11:00:51;;;;;;;8.85;6.07;;;;;;;;;;5030220;28;20057;-72
2022/06/08 11:03:33;;;;;;;8.52;6.00;;;;;;;;;;5030104;28;20099;-72
2022/06/08 11:05:59;;;;;;;9.48;5.97;;;;;;;;;;4995969;28;20041;-72
2022/06/08 11:08:43;;;;;;;9.00;5.68;;;;;;;;;;5012362;28;20281;-72
2022/06/08 11:11:09;;;;;;;8.10;5.18;;;;;;;;;;5012329;28;20061;-72
2022/06/08 11:13:37;;;;;;;7.68;5.00;;;;;;;;;;5012392;28;20045;-73
2022/06/08 11:16:11;;;;;;;7.28;4.50;;;;;;;;;;5030284;28;20079;-72
2022/06/08 11:18:48;;;;;;;7.10;4.13;;;;;;;;;;5027964;28;20080;-72
2022/06/08 11:21:14;;;;;;;6.63;2.83;;;;;;;;;;5030480;28;20427;-72
2022/06/08 11:23:43;;;;;;;7.90;3.08;;;;;;;;;;5011956;28;20412;-72
2022/06/08 11:26:20;;;;;;;9.40;2.80;;;;;;;;;;5029586;28;20033;-73
2022/06/08 11:28:48;;;;;;;5.97;2.63;;;;;;;;;;5012350;28;20079;-72
2022/06/08 11:31:26;;;;;;;7.40;2.70;;;;;;;;;;5029914;28;20104;-72
2022/06/08 11:34:04;;;;;;;6.20;2.75;;;;;;;;;;5029727;28;20044;-72
2022/06/08 11:36:43;;;;;;;5.88;2.97;;;;;;;;;;5012174;28;20406;-72
2022/06/08 11:39:29;;;;;;;8.70;3.00;;;;;;;;;;5030032;28;20041;-72
2022/06/08 11:42:15;;;;;;;8.02;3.85;;;;;;;;;;5012478;28;20053;-72
2022/06/08 11:44:43;;;;;;;6.07;2.90;;;;;;;;;;5012461;28;20420;-73
2022/06/08 11:47:15;;;;;;;7.90;2.97;;;;;;;;;;5011492;28;20042;-72
2022/06/08 11:49:44;;;;;;;7.40;3.33;;;;;;;;;;5011628;28;20058;-73
2022/06/08 11:52:23;;;;;;;7.00;3.58;;;;;;;;;;5029573;28;20116;-72
2022/06/08 11:54:59;;;;;;;7.90;3.63;;;;;;;;;;5030143;28;20489;-72
2022/06/08 11:57:25;;;;;;;7.70;3.80;;;;;;;;;;4996966;28;20503;-73
2022/06/08 11:59:52;;;;;;;10.18;4.07;;;;;;;;;;5029476;28;22194;-73
2022/06/08 12:02:24;;;;;;;7.10;4.15;;;;;;;;;;5029546;28;20041;-73
2022/06/08 12:04:52;;;;;;;7.45;5.00;;;;;;;;;;5011916;28;20540;-73
2022/06/08 12:07:45;;;;;;;7.72;4.65;;;;;;;;;;5028819;28;20047;-72
2022/06/08 12:10:19;;;;;;;9.27;5.30;;;;;;;;;;4968660;28;20488;-72
2022/06/08 12:12:45;;;;;;;10.38;5.43;;;;;;;;;;5010777;28;20412;-72
2022/06/08 12:15:28;;;;;;;9.23;5.30;;;;;;;;;;5028999;28;20514;-72
2022/06/08 12:17:55;;;;;;;9.88;5.50;;;;;;;;;;5028303;28;20053;-72
2022/06/08 12:20:38;;;;;;;9.80;5.93;;;;;;;;;;5028565;28;20044;-72
2022/06/08 12:23:04;;;;;;;9.50;6.30;;;;;;;;;;5029024;28;20118;-71
2022/06/08 12:25:31;;;;;;;9.70;5.47;;;;;;;;;;5011086;28;20052;-72
2022/06/08 12:28:09;;;;;;;12.02;6.30;;;;;;;;;;5011611;28;20083;-72
2022/06/08 12:30:47;;;;;;;10.55;6.45;;;;;;;;;;5011217;28;20065;-72
2022/06/08 12:33:16;;;;;;;9.32;5.72;;;;;;;;;;5029710;28;20048;-72
2022/06/08 12:36:01;;;;;;;9.93;6.00;;;;;;;;;;5011581;28;20137;-72
2022/06/08 12:38:28;;;;;;;8.50;5.80;;;;;;;;;;5013651;28;20049;-72
2022/06/08 12:41:01;;;;;;;11.32;5.68;;;;;;;;;;5032674;28;20049;-72
2022/06/08 12:43:54;;;;;;;9.40;5.38;;;;;;;;;;5015279;28;20049;-72
2022/06/08 12:46:23;;;;;;;10.77;5.90;;;;;;;;;;5010874;28;20076;-72
2022/06/08 12:48:55;;;;;;;9.40;6.28;;;;;;;;;;5014702;28;20088;-72
2022/06/08 12:51:32;;;;;;;10.98;6.22;;;;;;;;;;5011107;28;20084;-72
2022/06/08 12:53:59;;;;;;;9.85;7.10;;;;;;;;;;5012311;28;20110;-72
2022/06/08 12:56:26;;;;;;;9.52;6.97;;;;;;;;;;5013341;28;20485;-72
2022/06/08 12:58:53;;;;;;;11.63;7.57;;;;;;;;;;5011835;28;20367;-72
2022/06/08 13:01:20;;;;;;;11.00;7.50;;;;;;;;;;5012637;28;20072;-72
2022/06/08 13:03:46;;;;;;;11.77;8.07;;;;;;;;;;5011079;28;20114;-72
2022/06/08 13:06:12;;;;;;;11.45;8.05;;;;;;;;;;5012794;28;20074;-72
2022/06/08 13:08:39;;;;;;;11.35;7.95;;;;;;;;;;5012672;28;20489;-72
2022/06/08 13:11:07;;;;;;;12.57;7.88;;;;;;;;;;5012669;28;20474;-72
2022/06/08 13:13:36;;;;;;;10.23;8.02;;;;;;;;;;5012718;28;20173;-72
2022/06/08 13:16:04;;;;;;;11.38;7.35;;;;;;;;;;5011007;28;20160;-72
2022/06/08 13:18:30;;;;;;;10.13;7.22;;;;;;;;;;5012473;28;20042;-72
2022/06/08 13:20:57;;;;;;;11.50;7.50;;;;;;;;;;5011164;28;20470;-72
2022/06/08 13:23:24;;;;;;;12.20;7.78;;;;;;;;;;5011167;28;20033;-72
2022/06/08 13:25:51;;;;;;;12.40;7.75;;;;;;;;;;5011299;28;20504;-72
2022/06/08 13:28:23;;;;;;;11.70;7.50;;;;;;;;;;5011991;28;20369;-73
2022/06/08 13:30:50;;;;;;;10.05;7.38;;;;;;;;;;5012279;28;20528;-72
2022/06/08 13:36:07;;;;;;;12.65;7.05;;;;;;;;;;5012186;28;20045;-72
2022/06/08 13:38:33;;;;;;;8.98;6.13;;;;;;;;;;5011406;28;20093;-72
2022/06/08 13:41:00;;;;;;;10.27;5.35;;;;;;;;;;5010621;28;20038;-72
2022/06/08 13:43:27;;;;;;;7.35;4.25;;;;;;;;;;4994276;28;20038;-72
2022/06/08 13:45:53;;;;;;;8.68;4.03;;;;;;;;;;5011695;28;20030;-72
2022/06/08 13:48:21;;;;;;;7.22;3.35;;;;;;;;;;5011052;28;20041;-72
2022/06/08 13:50:50;;;;;;;5.60;2.78;;;;;;;;;;5025342;28;20505;-72
2022/06/08 13:53:19;;;;;;;7.03;2.30;;;;;;;;;;5013576;28;20418;-72
2022/06/08 13:55:47;;;;;;;8.15;2.58;;;;;;;;;;5031464;28;20041;-72
2022/06/08 13:58:13;;;;;;;6.05;2.20;;;;;;;;;;5031350;28;20034;-72
2022/06/08 14:00:45;;;;;;;5.00;2.30;;;;;;;;;;5013174;28;20050;-72
2022/06/08 14:03:16;;;;;;;6.93;2.20;;;;;;;;;;5013520;28;20049;-72
2022/06/08 14:14:00;;;;;;;4.10;2.10;;;;;;;;;;5029173;28;20780;-72
2022/06/08 14:16:26;;;;;;;5.57;2.00;;;;;;;;;;5031560;28;20034;-72
2022/06/08 14:18:54;;;;;;;4.68;1.80;;;;;;;;;;4994594;28;20033;-72
2022/06/08 14:21:21;;;;;;;5.60;1.90;;;;;;;;;;5030936;28;20033;-72
2022/06/08 14:23:48;;;;;;;5.50;1.83;;;;;;;;;;4996870;28;20037;-72
2022/06/08 14:26:17;;;;;;;4.97;1.80;;;;;;;;;;5030794;28;20037;-72
2022/06/08 14:28:46;;;;;;;6.40;1.95;;;;;;;;;;5031091;28;20420;-72
2022/06/08 14:31:17;;;;;;;4.57;1.60;;;;;;;;;;5030739;28;20052;-72
2022/06/08 14:33:43;;;;;;;5.07;2.00;;;;;;;;;;5031057;28;20041;-72
2022/06/08 14:36:16;;;;;;;4.57;1.80;;;;;;;;;;5030482;28;20481;-72
2022/06/08 14:38:43;;;;;;;5.60;1.30;;;;;;;;;;5030956;28;20041;-72
2022/06/08 14:41:10;;;;;;;2.85;1.30;;;;;;;;;;5030712;28;20551;-72
2022/06/08 14:43:36;;;;;;;4.32;1.52;;;;;;;;;;5011061;28;20045;-72
2022/06/08 14:46:02;;;;;;;4.30;1.40;;;;;;;;;;5012487;28;20078;-72
2022/06/08 14:48:38;;;;;;;3.60;1.50;;;;;;;;;;5030596;28;20099;-72
2022/06/08 14:51:06;;;;;;;5.10;1.40;;;;;;;;;;5029544;28;20097;-72
2022/06/08 14:53:32;;;;;;;4.53;1.35;;;;;;;;;;5030807;28;20493;-72
2022/06/08 14:56:43;;;;;;;4.78;1.42;;;;;;;;;;5012239;28;20124;-72
2022/06/08 14:58:45;;;;;;;4.95;1.70;;;;;;;;;;5017406;28;20076;-72
2022/06/08 15:01:15;;;;;;;3.90;1.50;;;;;;;;;;5029716;28;20042;-72
2022/06/08 15:03:41;;;;;;;4.53;1.60;;;;;;;;;;5012821;28;20050;-72
2022/06/08 15:06:10;;;;;;;4.15;1.70;;;;;;;;;;5012142;28;20493;-72
2022/06/08 15:08:36;;;;;;;4.15;1.83;;;;;;;;;;5012975;28;20042;-72